Time,TemperatureF,DewpointF,PressureIn,WindDirection,WindDirectionDegrees,WindSpeedMPH,WindSpeedGustMPH,Humidity,HourlyPrecipIn,Conditions,Clouds,dailyrainin,SoftwareType,DateUTC
2013-08-23 00:13:00,58.0,49.0,30.15,East,81,0.0,0.0,71,0.00,,,0.00,,2013-08-23 05:13:00,
2013-08-23 00:22:00,58.0,49.0,30.15,East,81,0.0,0.0,72,0.00,,,0.00,,2013-08-23 05:22:00,
2013-08-23 00:42:00,57.0,49.0,30.15,East,81,0.0,0.0,74,0.00,,,0.00,,2013-08-23 05:42:00,
2013-08-23 00:52:00,57.0,49.0,30.15,East,81,0.0,0.0,74,0.00,,,0.00,,2013-08-23 05:52:00,
2013-08-23 01:12:00,57.0,49.0,30.15,East,81,0.0,0.0,74,0.00,,,0.00,,2013-08-23 06:12:00,
2013-08-23 01:22:00,58.0,49.0,30.15,ESE,115,0.0,0.0,71,0.00,,,0.00,,2013-08-23 06:22:00,
2013-08-23 01:42:00,56.0,49.0,30.15,South,172,0.0,0.0,76,0.00,,,0.00,,2013-08-23 06:42:00,
2013-08-23 01:52:00,55.0,48.0,30.15,East,101,0.0,0.0,77,0.00,,,0.00,,2013-08-23 06:52:00,
2013-08-23 02:12:00,55.0,48.0,30.14,East,101,0.0,0.0,76,0.00,,,0.00,,2013-08-23 07:12:00,
2013-08-23 02:22:00,56.0,49.0,30.14,ESE,102,0.0,-999.0,77,-99.99,,,-99.99,,2013-08-23 07:22:00,
2013-08-23 02:52:00,57.0,49.0,30.14,SE,139,0.0,0.0,75,0.00,,,0.00,,2013-08-23 07:52:00,
2013-08-23 03:13:00,57.0,49.0,30.14,SE,127,0.0,0.0,74,0.00,,,0.00,,2013-08-23 08:13:00,
2013-08-23 03:22:00,56.0,49.0,30.14,SSE,155,0.0,0.0,76,0.00,,,0.00,,2013-08-23 08:22:00,
2013-08-23 03:42:00,56.0,49.0,30.14,SE,126,0.0,0.0,76,0.00,,,0.00,,2013-08-23 08:42:00,
2013-08-23 03:52:00,57.0,48.0,30.14,ESE,119,0.0,0.0,73,0.00,,,0.00,,2013-08-23 08:52:00,
2013-08-23 04:12:00,57.0,49.0,30.14,SE,132,0.0,0.0,75,0.00,,,0.00,,2013-08-23 09:12:00,
2013-08-23 04:21:00,57.0,49.0,30.14,SE,127,0.0,0.0,75,0.00,,,0.00,,2013-08-23 09:21:00,
2013-08-23 04:43:00,56.0,49.0,30.13,ESE,105,0.0,0.0,78,0.00,,,0.00,,2013-08-23 09:43:00,
2013-08-23 04:53:00,55.0,49.0,30.13,ESE,109,0.0,0.0,80,0.00,,,0.00,,2013-08-23 09:53:00,
2013-08-23 05:13:00,54.0,48.0,30.13,ESE,108,0.0,0.0,81,0.00,,,0.00,,2013-08-23 10:13:00,
2013-08-23 05:23:00,54.0,49.0,30.13,East,96,0.0,0.0,82,0.00,,,0.00,,2013-08-23 10:23:00,
2013-08-23 05:42:00,54.0,49.0,30.13,ESE,123,0.0,0.0,82,0.00,,,0.00,,2013-08-23 10:42:00,
2013-08-23 05:52:00,53.0,48.0,30.12,ESE,115,0.0,0.0,83,0.00,,,0.00,,2013-08-23 10:52:00,
2013-08-23 06:11:00,53.0,48.0,30.12,ESE,115,0.0,0.0,84,0.00,,,0.00,,2013-08-23 11:11:00,
2013-08-23 06:22:00,52.0,48.0,30.12,SE,143,0.0,0.0,85,0.00,,,0.00,,2013-08-23 11:22:00,
2013-08-23 06:42:00,52.0,48.0,30.13,South,172,0.0,0.0,86,0.00,,,0.00,,2013-08-23 11:42:00,
2013-08-23 06:53:00,53.0,49.0,30.13,SSE,148,0.0,0.0,85,0.00,,,0.00,,2013-08-23 11:53:00,
2013-08-23 07:11:00,53.0,49.0,30.13,SE,137,0.0,0.0,85,0.00,,,0.00,,2013-08-23 12:11:00,
2013-08-23 07:22:00,53.0,48.0,30.12,SE,135,0.0,0.0,84,0.00,,,0.00,,2013-08-23 12:22:00,
2013-08-23 07:42:00,53.0,48.0,30.12,SE,125,0.0,0.0,84,0.00,,,0.00,,2013-08-23 12:42:00,
2013-08-23 07:52:00,54.0,49.0,30.13,SE,145,0.0,0.0,83,0.00,,,0.00,,2013-08-23 12:52:00,
2013-08-23 08:12:00,55.0,50.0,30.13,SSE,165,0.0,2.0,82,0.00,,,0.00,,2013-08-23 13:12:00,
2013-08-23 08:22:00,56.0,50.0,30.12,SSE,153,0.0,2.0,81,0.00,,,0.00,,2013-08-23 13:22:00,
2013-08-23 08:42:00,59.0,51.0,30.12,ESE,115,0.0,5.0,76,0.00,,,0.00,,2013-08-23 13:42:00,
2013-08-23 08:52:00,60.0,52.0,30.12,ESE,118,0.0,4.0,74,0.00,,,0.00,,2013-08-23 13:52:00,
2013-08-23 09:12:00,61.0,53.0,30.11,SE,134,0.0,5.0,74,0.00,,,0.00,,2013-08-23 14:12:00,
2013-08-23 09:21:00,62.0,53.0,30.11,SSE,150,1.0,4.0,72,0.00,,,0.00,,2013-08-23 14:21:00,
2013-08-23 09:42:00,64.0,54.0,30.10,SE,134,1.0,4.0,70,0.00,,,0.00,,2013-08-23 14:42:00,
2013-08-23 09:52:00,65.0,54.0,30.10,SSE,159,1.0,7.0,68,0.00,,,0.00,,2013-08-23 14:52:00,
2013-08-23 10:11:00,67.0,55.0,30.09,SSE,167,2.0,7.0,66,0.00,,,0.00,,2013-08-23 15:11:00,
2013-08-23 10:22:00,68.0,56.0,30.09,South,191,0.0,5.0,65,0.00,,,0.00,,2013-08-23 15:22:00,
2013-08-23 10:44:00,69.0,56.0,30.08,ESE,113,2.0,6.0,64,0.00,,,0.00,,2013-08-23 15:44:00,
2013-08-23 10:54:00,71.0,57.0,30.07,SSE,148,1.0,4.0,62,0.00,,,0.00,,2013-08-23 15:54:00,
2013-08-23 11:13:00,72.0,58.0,30.07,SE,136,0.0,4.0,61,0.00,,,0.00,,2013-08-23 16:13:00,
2013-08-23 11:24:00,73.0,56.0,30.06,ESE,119,1.0,6.0,56,0.00,,,0.00,,2013-08-23 16:24:00,
2013-08-23 11:42:00,74.0,57.0,30.06,SE,131,2.0,11.0,56,0.00,,,0.00,,2013-08-23 16:42:00,
2013-08-23 11:53:00,76.0,57.0,30.06,SSE,155,1.0,6.0,51,0.00,,,0.00,,2013-08-23 16:53:00,
2013-08-23 12:13:00,77.0,57.0,30.06,SE,145,1.0,7.0,50,0.00,,,0.00,,2013-08-23 17:13:00,
2013-08-23 12:23:00,78.0,57.0,30.05,ESE,113,1.0,9.0,49,0.00,,,0.00,,2013-08-23 17:23:00,
2013-08-23 12:43:00,79.0,57.0,30.04,SE,146,2.0,10.0,47,0.00,,,0.00,,2013-08-23 17:43:00,
2013-08-23 12:53:00,80.0,57.0,30.04,SSE,148,3.0,10.0,46,0.00,,,0.00,,2013-08-23 17:53:00,
2013-08-23 13:12:00,80.0,57.0,30.04,SW,222,8.0,15.0,45,0.00,,,0.00,,2013-08-23 18:12:00,
2013-08-23 13:22:00,81.0,58.0,30.03,SSE,148,4.0,10.0,46,0.00,,,0.00,,2013-08-23 18:22:00,
2013-08-23 13:32:00,81.0,58.0,30.03,SSE,148,4.0,10.0,46,0.00,,,0.00,,2013-08-23 18:32:00,
2013-08-23 13:42:00,81.0,58.0,30.03,SSE,148,4.0,10.0,46,0.00,,,0.00,,2013-08-23 18:42:00,
2013-08-23 13:52:00,80.0,59.0,30.02,SSE,148,2.0,13.0,49,0.00,,,0.00,,2013-08-23 18:52:00,
2013-08-23 14:12:00,81.0,61.0,30.02,SSE,168,8.0,15.0,51,0.00,,,0.00,,2013-08-23 19:12:00,
2013-08-23 14:22:00,81.0,62.0,30.01,South,184,9.0,13.0,52,0.00,,,0.00,,2013-08-23 19:22:00,
2013-08-23 14:42:00,81.0,62.0,30.01,SSW,207,2.0,11.0,52,0.00,,,0.00,,2013-08-23 19:42:00,
2013-08-23 14:52:00,83.0,64.0,30.00,South,191,2.0,10.0,52,0.00,,,0.00,,2013-08-23 19:52:00,
2013-08-23 15:12:00,82.0,64.0,30.00,SSW,195,9.0,13.0,55,0.00,,,0.00,,2013-08-23 20:12:00,
2013-08-23 15:22:00,82.0,65.0,29.99,SE,135,6.0,13.0,56,0.00,,,0.00,,2013-08-23 20:22:00,
2013-08-23 15:42:00,82.0,65.0,29.98,SSE,161,7.0,16.0,56,0.00,,,0.00,,2013-08-23 20:42:00,
2013-08-23 15:52:00,81.0,64.0,29.98,SSW,212,7.0,15.0,56,0.00,,,0.00,,2013-08-23 20:52:00,
2013-08-23 16:11:00,82.0,65.0,29.97,SSW,211,3.0,11.0,56,0.00,,,0.00,,2013-08-23 21:11:00,
2013-08-23 16:22:00,83.0,65.0,29.97,SSE,162,6.0,16.0,54,0.00,,,0.00,,2013-08-23 21:22:00,
2013-08-23 16:44:00,85.0,66.0,29.96,SE,139,4.0,12.0,53,0.00,,,0.00,,2013-08-23 21:44:00,
2013-08-23 16:54:00,85.0,66.0,29.96,ESE,120,5.0,12.0,53,0.00,,,0.00,,2013-08-23 21:54:00,
2013-08-23 17:13:00,84.0,65.0,29.96,SSE,159,3.0,11.0,53,0.00,,,0.00,,2013-08-23 22:13:00,
2013-08-23 17:24:00,85.0,66.0,29.95,SSE,158,2.0,12.0,53,0.00,,,0.00,,2013-08-23 22:24:00,
2013-08-23 17:43:00,84.0,64.0,29.95,SE,136,4.0,12.0,51,0.00,,,0.00,,2013-08-23 22:43:00,
2013-08-23 17:53:00,84.0,65.0,29.94,SE,139,5.0,13.0,53,0.00,,,0.00,,2013-08-23 22:53:00,
2013-08-23 18:12:00,83.0,65.0,29.94,ESE,110,2.0,13.0,54,0.00,,,0.00,,2013-08-23 23:12:00,
2013-08-23 18:22:00,82.0,64.0,29.94,SW,214,1.0,8.0,55,0.00,,,0.00,,2013-08-23 23:22:00,
2013-08-23 18:43:00,82.0,65.0,29.93,ESE,115,0.0,10.0,56,0.00,,,0.00,,2013-08-23 23:43:00,
2013-08-23 18:54:00,82.0,63.0,29.93,SE,143,2.0,9.0,52,0.00,,,0.00,,2013-08-23 23:54:00,
2013-08-23 19:11:00,82.0,62.0,29.93,SSE,148,0.0,10.0,51,0.00,,,0.00,,2013-08-24 00:11:00,
2013-08-23 19:22:00,82.0,61.0,29.92,SE,134,3.0,9.0,50,0.00,,,0.00,,2013-08-24 00:22:00,
2013-08-23 19:43:00,82.0,61.0,29.91,SE,139,4.0,10.0,50,0.00,,,0.00,,2013-08-24 00:43:00,
2013-08-23 19:53:00,81.0,62.0,29.91,SSE,151,0.0,8.0,53,0.00,,,0.00,,2013-08-24 00:53:00,
2013-08-23 20:11:00,80.0,62.0,29.91,SE,139,2.0,8.0,54,0.00,,,0.00,,2013-08-24 01:11:00,
2013-08-23 20:22:00,79.0,62.0,29.90,ESE,122,1.0,8.0,56,0.00,,,0.00,,2013-08-24 01:22:00,
2013-08-23 20:42:00,78.0,62.0,29.90,SE,134,0.0,8.0,58,0.00,,,0.00,,2013-08-24 01:42:00,
2013-08-23 20:53:00,78.0,62.0,29.90,ESE,123,0.0,6.0,59,0.00,,,0.00,,2013-08-24 01:53:00,
2013-08-23 21:12:00,77.0,62.0,29.90,SE,142,0.0,4.0,60,0.00,,,0.00,,2013-08-24 02:12:00,
2013-08-23 21:22:00,76.0,62.0,29.91,SSE,148,0.0,4.0,63,0.00,,,0.00,,2013-08-24 02:22:00,
2013-08-23 21:42:00,76.0,63.0,29.91,SE,141,0.0,5.0,65,0.00,,,0.00,,2013-08-24 02:42:00,
2013-08-23 21:52:00,75.0,63.0,29.91,SE,126,0.0,0.0,67,0.00,,,0.00,,2013-08-24 02:52:00,
2013-08-23 22:12:00,74.0,64.0,29.91,SE,131,0.0,0.0,70,0.00,,,0.00,,2013-08-24 03:12:00,
2013-08-23 22:22:00,73.0,63.0,29.91,ESE,116,0.0,0.0,72,0.00,,,0.00,,2013-08-24 03:22:00,
2013-08-23 22:44:00,72.0,63.0,29.91,ESE,117,0.0,0.0,74,0.00,,,0.00,,2013-08-24 03:44:00,
2013-08-23 22:54:00,72.0,63.0,29.91,ESE,117,0.0,0.0,74,0.00,,,0.00,,2013-08-24 03:54:00,
2013-08-23 23:14:00,72.0,64.0,29.90,ESE,115,0.0,1.0,75,0.00,,,0.00,,2013-08-24 04:14:00,
2013-08-23 23:24:00,71.0,63.0,29.90,ESE,119,0.0,0.0,75,0.00,,,0.00,,2013-08-24 04:24:00,
2013-08-23 23:44:00,71.0,63.0,29.90,ESE,116,0.0,0.0,77,0.00,,,0.00,,2013-08-24 04:44:00,
2013-08-23 23:53:00,70.0,63.0,29.89,ESE,120,0.0,0.0,79,0.00,,,0.00,,2013-08-24 04:53:00,